createdAt,value
2023-01-09T00:01:49.423Z,81.08
2023-01-09T00:04:12.684Z,81.45
2023-01-09T00:06:35.440Z,81.20
2023-01-09T00:08:58.028Z,81.32
2023-01-09T00:11:21.047Z,81.39
2023-01-09T00:13:43.654Z,81.03
2023-01-09T00:16:08.399Z,81.01
2023-01-09T00:18:31.091Z,81.13
2023-01-09T00:20:53.731Z,80.85
2023-01-09T00:23:16.256Z,80.38
2023-01-09T00:25:40.013Z,80.46
2023-01-09T00:28:03.908Z,80.41
2023-01-09T00:30:27.348Z,80.29
2023-01-09T00:32:49.991Z,80.31
2023-01-09T00:35:16.780Z,79.93
2023-01-09T00:37:39.490Z,79.42
2023-01-09T00:40:02.334Z,79.17
2023-01-09T00:42:28.346Z,79.04
2023-01-09T00:45:14.490Z,79.23
2023-01-09T00:47:43.139Z,79.15
2023-01-09T00:50:10.303Z,78.98
2023-01-09T00:52:36.017Z,78.87
2023-01-09T00:54:59.718Z,79.18
2023-01-09T00:57:22.398Z,79.61
2023-01-09T00:59:45.138Z,79.52
2023-01-09T01:02:08.034Z,79.54
2023-01-09T01:04:49.294Z,79.90
2023-01-09T01:07:30.418Z,79.91
2023-01-09T01:09:53.134Z,80.09
2023-01-09T01:12:15.761Z,79.97
2023-01-09T01:14:39.616Z,80.04
2023-01-09T01:17:03.029Z,80.04
2023-01-09T01:19:25.654Z,79.73
2023-01-09T01:21:48.223Z,79.36
2023-01-09T01:24:11.036Z,79.16
2023-01-09T01:26:33.601Z,79.35
2023-01-09T01:28:56.263Z,79.43
2023-01-09T01:31:19.816Z,79.01
2023-01-09T01:33:42.558Z,78.73
2023-01-09T01:36:08.282Z,78.80
2023-01-09T01:38:31.727Z,78.73
2023-01-09T01:40:55.233Z,78.40
2023-01-09T01:43:17.782Z,78.28
2023-01-09T01:45:40.889Z,78.03
2023-01-09T01:48:14.137Z,78.25
2023-01-09T01:50:48.682Z,77.85
2023-01-09T01:53:19.088Z,77.67
2023-01-09T01:55:47.200Z,77.80
2023-01-09T01:58:13.459Z,77.45
2023-01-09T02:00:40.452Z,78.00
2023-01-09T02:03:03.308Z,77.54
2023-01-09T02:05:25.993Z,77.32
2023-01-09T02:07:48.615Z,77.16
2023-01-09T02:10:11.299Z,77.29
2023-01-09T02:12:33.917Z,77.29
2023-01-09T02:15:01.022Z,77.35
2023-01-09T02:17:37.503Z,77.98
2023-01-09T02:20:27.687Z,78.53
2023-01-09T02:22:56.039Z,78.77
2023-01-09T02:25:43.301Z,78.71
2023-01-09T02:28:24.448Z,78.78
2023-01-09T02:30:54.711Z,79.53
2023-01-09T02:33:52.033Z,79.31
2023-01-09T02:36:14.703Z,79.67
2023-01-09T02:38:46.292Z,79.71
2023-01-09T02:41:23.090Z,79.57
2023-01-09T02:43:45.737Z,79.93
2023-01-09T02:46:22.919Z,79.96
2023-01-09T02:48:46.612Z,80.09
2023-01-09T02:51:26.485Z,80.39
2023-01-09T02:54:04.261Z,80.66
2023-01-09T02:56:45.482Z,80.43
2023-01-09T02:59:21.296Z,80.69
2023-01-09T03:02:01.991Z,80.72
2023-01-09T03:04:30.526Z,80.80
2023-01-09T03:07:13.118Z,80.66
2023-01-09T03:09:40.024Z,80.66
2023-01-09T03:12:14.436Z,80.47
2023-01-09T03:14:41.817Z,80.74
2023-01-09T03:17:07.923Z,80.61
2023-01-09T03:19:32.229Z,80.52
2023-01-09T03:21:56.020Z,80.41
2023-01-09T03:24:18.678Z,80.55
2023-01-09T03:26:41.571Z,80.74
2023-01-09T03:29:04.771Z,80.83
2023-01-09T03:31:27.810Z,80.91
2023-01-09T03:33:51.064Z,81.02
2023-01-09T03:36:14.832Z,81.44
2023-01-09T03:38:37.457Z,81.52
2023-01-09T03:41:01.160Z,81.50
2023-01-09T03:43:23.868Z,81.63
2023-01-09T03:45:46.571Z,81.34
2023-01-09T03:48:09.363Z,81.43
2023-01-09T03:50:32.074Z,81.72
2023-01-09T03:52:55.778Z,81.48
2023-01-09T03:55:18.567Z,81.33
2023-01-09T03:57:41.282Z,81.43
2023-01-09T04:00:04.582Z,81.32
2023-01-09T04:02:35.156Z,81.11
2023-01-09T04:04:57.703Z,80.89
2023-01-09T04:07:20.276Z,81.05
2023-01-09T04:09:43.169Z,80.59
2023-01-09T04:12:06.137Z,80.25
2023-01-09T04:14:28.749Z,80.52
2023-01-09T04:16:51.494Z,80.59
2023-01-09T04:19:14.363Z,80.54
2023-01-09T04:21:37.173Z,80.40
2023-01-09T04:23:59.979Z,80.59
2023-01-09T04:26:22.556Z,80.79
2023-01-09T04:28:45.537Z,80.68
2023-01-09T04:31:08.062Z,80.43
2023-01-09T04:33:31.019Z,80.13
2023-01-09T04:35:53.645Z,80.44
2023-01-09T04:38:16.468Z,80.71
2023-01-09T04:40:39.357Z,80.42
2023-01-09T04:43:01.972Z,80.78
2023-01-09T04:45:24.588Z,80.80
2023-01-09T04:47:47.969Z,80.67
2023-01-09T04:50:12.465Z,80.85
2023-01-09T04:52:35.229Z,81.12
2023-01-09T04:54:58.500Z,81.10
2023-01-09T04:57:21.411Z,81.43
2023-01-09T04:59:44.049Z,81.68
2023-01-09T05:02:07.039Z,81.97
2023-01-09T05:04:30.373Z,82.01
2023-01-09T05:06:53.119Z,82.01
2023-01-09T05:09:15.855Z,81.89
2023-01-09T05:11:38.521Z,81.84
2023-01-09T05:14:01.172Z,82.39
2023-01-09T05:16:23.830Z,82.02
2023-01-09T05:18:46.495Z,82.29
2023-01-09T05:21:09.160Z,82.08
2023-01-09T05:23:32.041Z,82.16
2023-01-09T05:25:54.714Z,82.02
2023-01-09T05:28:17.284Z,82.28
2023-01-09T05:30:39.989Z,82.65
2023-01-09T05:33:02.552Z,82.69
2023-01-09T05:35:25.135Z,82.79
2023-01-09T05:37:47.669Z,83.04
2023-01-09T05:40:11.035Z,82.96
2023-01-09T05:42:33.648Z,82.81
2023-01-09T05:44:56.594Z,82.80
2023-01-09T05:47:19.209Z,82.58
2023-01-09T05:49:42.037Z,82.80
2023-01-09T05:52:05.253Z,82.80
2023-01-09T05:54:27.920Z,82.88
2023-01-09T05:56:50.428Z,83.10
2023-01-09T05:59:13.268Z,82.95
2023-01-09T06:01:36.076Z,83.15
2023-01-09T06:03:58.762Z,83.03
2023-01-09T06:06:21.353Z,82.95
2023-01-09T06:08:43.966Z,82.84
2023-01-09T06:11:06.551Z,82.64
2023-01-09T06:13:29.150Z,82.24
2023-01-09T06:15:51.855Z,82.06
2023-01-09T06:18:14.871Z,82.08
2023-01-09T06:20:37.522Z,82.14
2023-01-09T06:23:00.185Z,82.20
2023-01-09T06:25:23.263Z,82.44
2023-01-09T06:27:47.743Z,82.37
2023-01-09T06:30:11.077Z,82.36
2023-01-09T06:32:33.763Z,82.15
2023-01-09T06:34:56.457Z,82.32
2023-01-09T06:37:19.246Z,82.38
2023-01-09T06:39:41.998Z,82.30
2023-01-09T06:42:04.804Z,82.36
2023-01-09T06:44:27.551Z,82.18
2023-01-09T06:46:53.869Z,82.33
2023-01-09T06:49:23.516Z,82.43
2023-01-09T06:51:46.368Z,82.40
2023-01-09T06:54:09.268Z,82.44
2023-01-09T06:56:36.001Z,82.35
2023-01-09T06:58:58.701Z,82.61
2023-01-09T07:01:21.604Z,82.63
2023-01-09T07:03:45.117Z,82.48
2023-01-09T07:06:09.662Z,82.87
2023-01-09T07:08:34.522Z,83.04
2023-01-09T07:10:59.667Z,83.11
2023-01-09T07:13:22.932Z,83.51
2023-01-09T07:15:46.245Z,83.11
2023-01-09T07:18:09.447Z,82.81
2023-01-09T07:20:32.302Z,83.59
2023-01-09T07:22:55.447Z,84.23
2023-01-09T07:25:18.248Z,83.54
2023-01-09T07:27:41.239Z,83.49
2023-01-09T07:30:05.898Z,83.68
2023-01-09T07:32:28.652Z,83.65
2023-01-09T07:34:51.779Z,82.56
2023-01-09T07:37:14.685Z,83.01
2023-01-09T07:39:37.827Z,82.70
2023-01-09T07:42:00.502Z,82.78
2023-01-09T07:44:23.787Z,82.80
2023-01-09T07:46:46.435Z,83.24
2023-01-09T07:49:09.422Z,82.54
2023-01-09T07:51:32.382Z,83.23
2023-01-09T07:53:55.107Z,83.81
2023-01-09T07:56:17.998Z,84.82
2023-01-09T07:58:41.759Z,84.80
2023-01-09T08:01:05.379Z,85.42
2023-01-09T08:03:28.537Z,85.09
2023-01-09T08:05:51.758Z,86.34
2023-01-09T08:08:15.262Z,86.21
2023-01-09T08:10:37.935Z,86.14
2023-01-09T08:13:00.604Z,86.58
2023-01-09T08:15:23.223Z,87.20
2023-01-09T08:17:47.085Z,87.20
2023-01-09T08:20:12.279Z,87.50
2023-01-09T08:22:35.044Z,87.77
2023-01-09T08:24:57.798Z,87.34
2023-01-09T08:27:20.508Z,87.55
2023-01-09T08:29:44.107Z,88.04
2023-01-09T08:32:07.014Z,87.87
2023-01-09T08:34:30.568Z,88.76
2023-01-09T08:36:54.212Z,88.36
2023-01-09T08:39:17.068Z,88.04
2023-01-09T08:41:58.113Z,89.13
2023-01-09T08:45:00.385Z,89.07
2023-01-09T08:47:24.864Z,89.19
2023-01-09T08:49:47.615Z,89.19
2023-01-09T08:52:10.717Z,88.87
2023-01-09T08:54:34.162Z,88.54
2023-01-09T08:56:57.286Z,88.33
2023-01-09T08:59:20.160Z,88.60
2023-01-09T09:01:43.480Z,88.89
2023-01-09T09:04:06.470Z,88.88
2023-01-09T09:06:29.141Z,88.80
2023-01-09T09:08:51.818Z,89.09
2023-01-09T09:11:14.855Z,89.48
2023-01-09T09:13:37.715Z,90.04
2023-01-09T09:16:00.507Z,89.60
2023-01-09T09:18:23.311Z,89.63
2023-01-09T09:20:46.107Z,89.87
2023-01-09T09:23:08.833Z,90.28
2023-01-09T09:25:31.692Z,90.21
2023-01-09T09:27:56.432Z,89.67
2023-01-09T09:30:20.902Z,89.76
2023-01-09T09:32:43.570Z,89.78
2023-01-09T09:35:06.995Z,89.94
2023-01-09T09:37:29.611Z,89.86
2023-01-09T09:39:53.105Z,90.02
2023-01-09T09:42:46.571Z,90.52
2023-01-09T09:45:43.165Z,90.02
2023-01-09T09:48:41.473Z,90.11
2023-01-09T09:51:36.410Z,90.29
2023-01-09T09:54:22.691Z,90.88
2023-01-09T09:56:53.310Z,90.35
2023-01-09T09:59:20.377Z,90.50
2023-01-09T10:01:51.659Z,90.17
2023-01-09T10:04:18.690Z,90.29
2023-01-09T10:06:44.949Z,90.31
2023-01-09T10:09:17.038Z,90.15
2023-01-09T10:11:52.786Z,90.77
2023-01-09T10:14:23.540Z,90.94
2023-01-09T10:17:06.298Z,90.73
2023-01-09T10:19:44.428Z,91.13
2023-01-09T10:22:19.305Z,90.87
2023-01-09T10:25:06.868Z,90.40
2023-01-09T10:27:54.509Z,90.34
2023-01-09T10:30:46.125Z,89.57
2023-01-09T10:33:45.759Z,89.95
2023-01-09T10:36:26.573Z,91.00
2023-01-09T10:38:53.205Z,90.74
2023-01-09T10:41:29.108Z,90.26
2023-01-09T10:44:19.407Z,89.56
2023-01-09T10:46:49.153Z,89.17
2023-01-09T10:49:18.849Z,88.84
2023-01-09T10:51:48.134Z,89.07
2023-01-09T10:54:16.381Z,89.80
2023-01-09T10:56:45.307Z,90.51
2023-01-09T10:59:09.742Z,90.87
2023-01-09T11:01:37.668Z,90.77
2023-01-09T11:04:02.336Z,91.47
2023-01-09T11:06:32.748Z,91.23
2023-01-09T11:08:59.184Z,91.24
2023-01-09T11:11:43.101Z,90.98
2023-01-09T11:14:31.622Z,90.91
2023-01-09T11:16:56.920Z,90.68
2023-01-09T11:19:20.114Z,90.97
2023-01-09T11:21:43.131Z,91.07
2023-01-09T11:24:21.474Z,91.25
2023-01-09T11:26:47.405Z,91.43
2023-01-09T11:29:21.216Z,90.85
2023-01-09T11:31:53.461Z,90.92
2023-01-09T11:34:22.028Z,90.96
2023-01-09T11:36:45.673Z,91.43
2023-01-09T11:39:25.736Z,91.38
2023-01-09T11:41:53.645Z,91.16
2023-01-09T11:44:16.463Z,91.02
2023-01-09T11:46:44.100Z,91.00
2023-01-09T11:49:12.983Z,91.26
2023-01-09T11:51:36.990Z,91.09
2023-01-09T11:54:24.534Z,90.96
2023-01-09T11:56:48.616Z,91.37
2023-01-09T11:59:14.457Z,91.39
2023-01-09T12:01:37.202Z,91.38
2023-01-09T12:04:17.817Z,91.09
2023-01-09T12:06:59.119Z,90.91
2023-01-09T12:09:52.870Z,90.93
2023-01-09T12:12:35.426Z,90.81
2023-01-09T12:15:16.084Z,90.74
2023-01-09T12:18:05.555Z,90.94
2023-01-09T12:20:38.451Z,90.87
2023-01-09T12:23:23.353Z,90.69
2023-01-09T12:26:06.265Z,90.48
2023-01-09T12:28:35.502Z,90.57
2023-01-09T12:31:26.241Z,90.96
2023-01-09T12:33:57.615Z,90.80
2023-01-09T12:36:37.323Z,90.45
2023-01-09T12:39:09.498Z,90.10
2023-01-09T12:41:38.130Z,89.87
2023-01-09T12:44:39.212Z,89.38
2023-01-09T12:47:23.676Z,89.92
2023-01-09T12:50:21.204Z,90.60
2023-01-09T12:52:57.039Z,91.14
2023-01-09T12:55:23.995Z,91.44
2023-01-09T12:57:51.162Z,92.06
2023-01-09T13:00:23.822Z,92.29
2023-01-09T13:03:03.646Z,92.43
2023-01-09T13:05:37.631Z,92.28
2023-01-09T13:08:08.568Z,92.55
2023-01-09T13:10:42.160Z,92.55
2023-01-09T13:13:38.459Z,92.30
2023-01-09T13:16:05.622Z,92.12
2023-01-09T13:19:12.160Z,91.98
2023-01-09T13:21:35.509Z,91.70
2023-01-09T13:24:11.037Z,91.48
2023-01-09T13:26:45.644Z,91.23
2023-01-09T13:29:26.698Z,91.15
2023-01-09T13:32:08.528Z,90.97
2023-01-09T13:34:34.128Z,90.70
2023-01-09T13:36:58.799Z,90.80
2023-01-09T13:39:40.419Z,90.56
2023-01-09T13:42:25.449Z,90.80
2023-01-09T13:44:51.189Z,90.01
2023-01-09T13:47:22.932Z,89.88
2023-01-09T13:49:45.499Z,89.90
2023-01-09T13:52:36.802Z,90.22
2023-01-09T13:55:24.402Z,90.34
2023-01-09T13:58:05.753Z,89.94
2023-01-09T14:00:28.384Z,89.71
2023-01-09T14:02:56.614Z,89.45
2023-01-09T14:05:25.032Z,89.53
2023-01-09T14:07:49.989Z,89.61
2023-01-09T14:10:25.871Z,90.55
2023-01-09T14:12:49.464Z,90.95
2023-01-09T14:15:26.983Z,90.74
2023-01-09T14:18:15.178Z,91.02
2023-01-09T14:20:41.646Z,91.19
2023-01-09T14:23:28.006Z,91.57
2023-01-09T14:25:48.222Z,91.88
2023-01-09T14:28:22.975Z,91.98
2023-01-09T14:30:54.379Z,92.24
2023-01-09T14:33:20.213Z,92.28
2023-01-09T14:35:54.632Z,92.68
2023-01-09T14:38:37.755Z,92.48
2023-01-09T14:41:21.199Z,92.49
2023-01-09T14:44:06.553Z,92.78
2023-01-09T14:46:37.763Z,92.97
2023-01-09T14:49:07.459Z,93.26
2023-01-09T14:51:35.599Z,93.26
2023-01-09T14:54:01.660Z,93.16
2023-01-09T14:56:28.715Z,92.90
2023-01-09T14:59:12.805Z,92.60
2023-01-09T15:01:36.440Z,92.45
2023-01-09T15:04:03.012Z,92.40
2023-01-09T15:06:29.151Z,92.23
2023-01-09T15:09:24.573Z,92.10
2023-01-09T15:11:47.655Z,92.07
2023-01-09T15:14:33.069Z,92.01
2023-01-09T15:16:56.079Z,91.72
2023-01-09T15:19:19.721Z,91.51
2023-01-09T15:21:56.768Z,91.44
2023-01-09T15:24:22.858Z,91.43
2023-01-09T15:26:53.216Z,91.40
2023-01-09T15:29:20.607Z,91.40
2023-01-09T15:31:45.530Z,91.30
2023-01-09T15:34:17.453Z,91.26
2023-01-09T15:36:40.357Z,91.27
2023-01-09T15:39:06.763Z,91.20
2023-01-09T15:41:49.331Z,91.20
2023-01-09T15:44:21.094Z,91.49
2023-01-09T15:46:46.519Z,91.37
2023-01-09T15:49:12.372Z,91.39
2023-01-09T15:51:35.266Z,91.67
2023-01-09T15:54:00.783Z,91.68
2023-01-09T15:56:25.690Z,91.47
2023-01-09T15:58:52.790Z,91.40
2023-01-09T16:01:35.321Z,91.36
2023-01-09T16:04:18.265Z,91.61
2023-01-09T16:06:49.294Z,91.61
2023-01-09T16:09:41.908Z,91.42
2023-01-09T16:12:04.875Z,91.41
2023-01-09T16:14:38.591Z,92.07
2023-01-09T16:17:07.760Z,92.41
2023-01-09T16:19:47.120Z,92.21
2023-01-09T16:22:31.394Z,92.43
2023-01-09T16:24:57.441Z,92.66
2023-01-09T16:27:27.308Z,92.29
2023-01-09T16:29:57.410Z,92.08
2023-01-09T16:32:24.334Z,91.83
2023-01-09T16:34:52.241Z,92.06
2023-01-09T16:37:14.849Z,91.56
2023-01-09T16:39:38.812Z,90.80
2023-01-09T16:42:20.412Z,91.29
2023-01-09T16:44:43.166Z,91.42
2023-01-09T16:47:05.887Z,91.59
2023-01-09T16:49:29.032Z,91.70
2023-01-09T16:51:51.913Z,92.18
2023-01-09T16:54:15.288Z,92.50
2023-01-09T16:56:39.376Z,92.61
2023-01-09T16:59:02.013Z,92.58
2023-01-09T17:01:25.546Z,92.62
2023-01-09T17:03:48.492Z,92.70
2023-01-09T17:06:31.493Z,92.23
2023-01-09T17:08:54.354Z,91.89
2023-01-09T17:11:31.599Z,91.72
2023-01-09T17:13:54.422Z,92.50
2023-01-09T17:16:18.454Z,92.49
2023-01-09T17:18:41.670Z,92.85
2023-01-09T17:21:04.334Z,92.87
2023-01-09T17:23:27.118Z,92.42
2023-01-09T17:26:11.609Z,92.32
2023-01-09T17:28:35.928Z,92.65
2023-01-09T17:31:10.585Z,92.49
2023-01-09T17:33:33.781Z,92.23
2023-01-09T17:35:56.840Z,92.42
2023-01-09T17:38:19.927Z,92.78
2023-01-09T17:40:43.717Z,92.75
2023-01-09T17:43:06.351Z,92.89
2023-01-09T17:45:29.042Z,93.04
2023-01-09T17:47:52.119Z,92.99
2023-01-09T17:50:19.721Z,93.12
2023-01-09T17:52:42.336Z,93.22
2023-01-09T17:55:05.525Z,93.18
2023-01-09T17:57:28.305Z,92.79
2023-01-09T17:59:50.969Z,92.63
2023-01-09T18:02:18.059Z,92.51
2023-01-09T18:04:40.639Z,92.54
2023-01-09T18:07:03.197Z,92.85
2023-01-09T18:09:25.870Z,92.73
2023-01-09T18:11:48.747Z,92.90
2023-01-09T18:14:13.683Z,92.89
2023-01-09T18:16:37.455Z,93.06
2023-01-09T18:19:01.588Z,93.56
2023-01-09T18:21:26.547Z,93.82
2023-01-09T18:23:50.222Z,93.77
2023-01-09T18:26:20.363Z,93.87
2023-01-09T18:28:42.991Z,93.25
2023-01-09T18:31:06.495Z,92.85
2023-01-09T18:33:29.100Z,92.92
2023-01-09T18:35:52.337Z,92.74
2023-01-09T18:38:16.517Z,92.95
2023-01-09T18:40:39.431Z,93.14
2023-01-09T18:43:07.930Z,93.31
2023-01-09T18:45:31.910Z,93.72
2023-01-09T18:47:55.415Z,93.77
2023-01-09T18:50:18.140Z,94.02
2023-01-09T18:52:40.704Z,93.81
2023-01-09T18:55:03.898Z,93.99
2023-01-09T18:57:26.713Z,94.16
2023-01-09T18:59:50.101Z,94.05
2023-01-09T19:02:24.658Z,94.14
2023-01-09T19:04:47.820Z,94.10
2023-01-09T19:07:10.738Z,94.05
2023-01-09T19:09:33.588Z,93.91
2023-01-09T19:11:56.494Z,93.84
2023-01-09T19:14:19.391Z,93.75
2023-01-09T19:16:42.770Z,93.78
2023-01-09T19:19:06.670Z,93.79
2023-01-09T19:21:29.879Z,93.89
2023-01-09T19:23:52.938Z,93.86
2023-01-09T19:26:24.686Z,93.82
2023-01-09T19:28:47.967Z,93.89
2023-01-09T19:31:11.235Z,93.69
2023-01-09T19:33:34.465Z,93.35
2023-01-09T19:35:57.233Z,93.29
2023-01-09T19:38:22.642Z,93.50
2023-01-09T19:40:45.166Z,93.43
2023-01-09T19:43:07.950Z,93.61
2023-01-09T19:45:30.564Z,93.95
2023-01-09T19:47:53.526Z,93.23
2023-01-09T19:50:17.917Z,93.01
2023-01-09T19:52:43.300Z,92.48
2023-01-09T19:55:06.362Z,92.71
2023-01-09T19:57:29.404Z,92.90
2023-01-09T19:59:52.391Z,93.08
2023-01-09T20:02:15.902Z,93.06
2023-01-09T20:04:38.814Z,93.17
2023-01-09T20:07:01.488Z,93.37
2023-01-09T20:09:27.507Z,93.79
2023-01-09T20:11:50.266Z,93.45
2023-01-09T20:14:14.333Z,93.71
2023-01-09T20:16:37.250Z,93.63
2023-01-09T20:19:07.478Z,93.73
2023-01-09T20:21:30.472Z,93.76
2023-01-09T20:23:55.174Z,93.47
2023-01-09T20:26:18.781Z,93.47
2023-01-09T20:28:41.502Z,93.34
2023-01-09T20:31:05.833Z,93.69
2023-01-09T20:33:28.583Z,93.69
2023-01-09T20:35:51.351Z,93.79
2023-01-09T20:38:14.385Z,93.94
2023-01-09T20:40:37.954Z,94.16
2023-01-09T20:43:00.593Z,94.43
2023-01-09T20:45:23.889Z,94.35
2023-01-09T20:47:46.527Z,94.35
2023-01-09T20:50:10.049Z,94.29
2023-01-09T20:52:32.712Z,94.22
2023-01-09T20:54:55.363Z,94.38
2023-01-09T20:57:18.004Z,94.30
2023-01-09T20:59:40.910Z,94.45
2023-01-09T21:02:03.489Z,94.09
2023-01-09T21:04:26.291Z,94.32
2023-01-09T21:06:50.142Z,94.16
2023-01-09T21:09:13.147Z,94.21
2023-01-09T21:11:35.669Z,94.33
2023-01-09T21:13:58.247Z,94.26
2023-01-09T21:16:24.451Z,94.15
2023-01-09T21:18:48.342Z,94.04
2023-01-09T21:21:16.958Z,93.88
2023-01-09T21:23:44.290Z,93.87
2023-01-09T21:26:11.233Z,93.79
2023-01-09T21:28:40.509Z,93.82
2023-01-09T21:31:03.349Z,93.85
2023-01-09T21:33:26.054Z,93.75
2023-01-09T21:35:53.817Z,93.82
2023-01-09T21:38:16.523Z,93.99
2023-01-09T21:40:39.187Z,93.83
2023-01-09T21:43:20.043Z,93.53
2023-01-09T21:46:01.240Z,93.59
2023-01-09T21:48:24.122Z,93.89
2023-01-09T21:50:46.696Z,93.81
2023-01-09T21:53:09.458Z,93.76
2023-01-09T21:55:32.248Z,93.87
2023-01-09T21:57:58.502Z,93.87
2023-01-09T22:00:21.352Z,93.78
2023-01-09T22:02:45.393Z,93.87
2023-01-09T22:05:08.072Z,93.51
2023-01-09T22:07:51.500Z,93.29
2023-01-09T22:10:15.078Z,93.26
2023-01-09T22:12:37.803Z,92.80
2023-01-09T22:15:00.414Z,93.00
2023-01-09T22:17:23.061Z,93.30
2023-01-09T22:19:46.017Z,93.62
2023-01-09T22:22:08.621Z,93.66
2023-01-09T22:24:31.310Z,93.16
2023-01-09T22:26:53.944Z,93.19
2023-01-09T22:29:16.584Z,93.37
2023-01-09T22:31:40.171Z,93.59
2023-01-09T22:34:02.808Z,93.36
2023-01-09T22:36:27.934Z,93.42
2023-01-09T22:38:54.178Z,93.46
2023-01-09T22:41:16.802Z,93.31
2023-01-09T22:43:39.696Z,93.10
2023-01-09T22:46:05.271Z,92.86
2023-01-09T22:48:31.657Z,93.15
2023-01-09T22:50:58.631Z,93.35
2023-01-09T22:53:21.211Z,92.99
2023-01-09T22:55:43.778Z,93.02
2023-01-09T22:58:06.431Z,93.02
2023-01-09T23:00:29.079Z,92.96
2023-01-09T23:02:51.930Z,92.88
2023-01-09T23:05:15.073Z,92.31
2023-01-09T23:07:37.698Z,92.23
2023-01-09T23:10:02.072Z,91.99
2023-01-09T23:12:24.890Z,92.05
2023-01-09T23:14:47.486Z,92.18
2023-01-09T23:17:13.096Z,92.26
2023-01-09T23:19:36.479Z,92.15
2023-01-09T23:22:17.671Z,92.42
2023-01-09T23:24:58.906Z,92.48
2023-01-09T23:27:40.581Z,92.73
2023-01-09T23:30:21.942Z,92.58
2023-01-09T23:32:45.047Z,92.57
2023-01-09T23:35:07.857Z,92.34
2023-01-09T23:37:30.537Z,92.29
2023-01-09T23:39:53.238Z,92.21
2023-01-09T23:42:34.785Z,92.15
2023-01-09T23:44:57.469Z,91.89
2023-01-09T23:47:20.249Z,92.20
2023-01-09T23:49:43.140Z,92.30
2023-01-09T23:52:06.692Z,92.37
2023-01-09T23:54:29.304Z,92.39
2023-01-09T23:56:53.447Z,92.17
2023-01-09T23:59:17.643Z,92.19
